Portada
METAR-TAF:

METAR-TAF

Aeropuertos :

Aeropuerto de Gibraltar

Gibraltar, Gibraltar

latitud: 36-09N, longitud: 005-21W, altitud: 5 m

Observación

El informe se hizo hace 39 minutos, a las 04:50 UTC
Viento 2 kt del suroeste
Temperatura 16°C
Humedad 82%
Presión 1012 hPa
Visibilidad 10 km o más
sin nubes por debajo de 1500 m y sin presencia de cumulonimbus.

METAR: LXGB 210450Z 22002KT CAVOK 16/13 Q1012

Hora: 07:29 (05:29 UTC)

Pronóstico

El informe se hizo hace 12 horas y 40 minutos, a las 16:49 UTC
Pronóstico válido del 20 a las 18 UTC al 20 a las 22 UTC
Viento 6 kt del este
Visibilidad 10 km o más
Escasas nubes a una altura de 700 ft
Probabilidad 30% :
Temporalmente
del 20 a las 18 UTC al 20 a las 22 UTC
Visibilidad: 6000 m
Nubes dispersas a una altura de 600 ft
calima

TAF: LXGB 201649Z 2018/2022 08006KT 9999 FEW007 PROB30 TEMPO 2018/2022 6000 HZ SCT006

Observaciones y pronósticos meteorológicos de más de 4000 aeropuertos (mensajes METAR y TAF).

Los puntos amarillos y rojos representan las estaciones disponibles.

Ponga el ratón en el punto deseado para ver el nombre de la estación.

Haga clic para ver las observaciones y los pronósticos meteorológicos.

Para cambiar el mapa : haga clic en los botones verdes con una cruz de color negro para hacer un zoom, en el botón verde con un guión para alejar o en las flechas verdes para mapas adyacentes.


METAR-TAF: